createdAt,value
2018-09-11T00:01:10.069Z,17.08
2018-09-11T00:03:38.116Z,17.03
2018-09-11T00:06:06.376Z,17.01
2018-09-11T00:08:34.499Z,17.01
2018-09-11T00:11:02.599Z,17.06
2018-09-11T00:13:30.691Z,17.13
2018-09-11T00:15:58.771Z,17.12
2018-09-11T00:18:26.968Z,17.12
2018-09-11T00:20:55.040Z,17.09
2018-09-11T00:23:23.128Z,17.06
2018-09-11T00:25:51.200Z,16.95
2018-09-11T00:28:19.288Z,16.82
2018-09-11T00:30:48.339Z,16.67
2018-09-11T00:33:16.431Z,16.52
2018-09-11T00:35:44.500Z,16.55
2018-09-11T00:38:12.592Z,16.42
2018-09-11T00:40:41.512Z,16.50
2018-09-11T00:43:09.580Z,16.52
2018-09-11T00:45:37.650Z,16.36
2018-09-11T00:48:05.782Z,16.24
2018-09-11T00:50:33.856Z,16.22
2018-09-11T00:53:01.951Z,16.22
2018-09-11T00:55:30.032Z,16.25
2018-09-11T00:57:58.147Z,16.25
2018-09-11T01:00:26.237Z,16.15
2018-09-11T01:02:54.335Z,16.16
2018-09-11T01:05:22.581Z,16.26
2018-09-11T01:07:50.751Z,16.27
2018-09-11T01:10:18.941Z,16.25
2018-09-11T01:12:46.964Z,16.17
2018-09-11T01:15:15.057Z,16.21
2018-09-11T01:17:43.146Z,16.15
2018-09-11T01:20:11.255Z,16.20
2018-09-11T01:22:39.311Z,16.13
2018-09-11T01:25:07.463Z,16.08
2018-09-11T01:27:35.544Z,16.10
2018-09-11T01:30:03.648Z,16.04
2018-09-11T01:32:31.731Z,15.94
2018-09-11T01:34:59.836Z,15.89
2018-09-11T01:37:27.934Z,15.88
2018-09-11T01:39:56.023Z,15.87
2018-09-11T01:42:24.117Z,15.79
2018-09-11T01:44:52.215Z,15.76
2018-09-11T01:47:20.280Z,15.64
2018-09-11T01:49:48.360Z,15.63
2018-09-11T01:52:16.427Z,15.75
2018-09-11T01:54:44.625Z,15.78
2018-09-11T01:57:12.696Z,15.74
2018-09-11T01:59:40.783Z,15.52
2018-09-11T02:02:08.870Z,15.39
2018-09-11T02:04:36.983Z,15.29
2018-09-11T02:07:05.151Z,15.25
2018-09-11T02:09:33.228Z,15.27
2018-09-11T02:12:01.304Z,15.22
2018-09-11T02:14:29.413Z,15.22
2018-09-11T02:16:57.506Z,15.34
2018-09-11T02:19:25.593Z,15.37
2018-09-11T02:21:53.680Z,15.36
2018-09-11T02:24:21.763Z,15.35
2018-09-11T02:26:49.866Z,15.36
2018-09-11T02:29:17.963Z,15.44
2018-09-11T02:31:46.214Z,15.42
2018-09-11T02:34:14.306Z,15.38
2018-09-11T02:36:42.408Z,15.21
2018-09-11T02:39:12.178Z,15.15
2018-09-11T02:41:40.332Z,15.22
2018-09-11T02:44:09.068Z,15.21
2018-09-11T02:46:37.183Z,15.10
2018-09-11T02:49:05.325Z,15.09
2018-09-11T02:51:33.967Z,15.22
2018-09-11T02:54:02.359Z,15.29
2018-09-11T02:56:30.453Z,15.22
2018-09-11T02:58:58.569Z,15.13
2018-09-11T03:01:26.681Z,15.09
2018-09-11T03:03:54.874Z,15.03
2018-09-11T03:06:22.974Z,15.00
2018-09-11T03:08:51.058Z,14.88
2018-09-11T03:11:19.212Z,14.89
2018-09-11T03:13:48.171Z,14.79
2018-09-11T03:16:16.263Z,14.78
2018-09-11T03:18:44.368Z,14.58
2018-09-11T03:21:12.480Z,14.58
2018-09-11T03:23:40.582Z,14.57
2018-09-11T03:26:08.701Z,14.55
2018-09-11T03:28:36.793Z,14.50
2018-09-11T03:31:05.496Z,14.42
2018-09-11T03:33:33.598Z,14.25
2018-09-11T03:36:01.729Z,14.20
2018-09-11T03:38:29.815Z,14.22
2018-09-11T03:40:57.919Z,14.17
2018-09-11T03:43:26.006Z,14.19
2018-09-11T03:45:54.078Z,14.22
2018-09-11T03:48:22.390Z,14.20
2018-09-11T03:50:51.499Z,14.17
2018-09-11T03:53:19.575Z,14.27
2018-09-11T03:55:48.054Z,14.22
2018-09-11T03:58:17.068Z,14.18
2018-09-11T04:00:45.191Z,14.07
2018-09-11T04:03:13.343Z,14.06
2018-09-11T04:05:41.443Z,14.05
2018-09-11T04:08:09.563Z,14.00
2018-09-11T04:10:37.687Z,13.98
2018-09-11T04:13:05.826Z,14.00
2018-09-11T04:15:33.935Z,13.94
2018-09-11T04:18:02.039Z,13.94
2018-09-11T04:20:30.136Z,13.91
2018-09-11T04:22:58.256Z,13.91
2018-09-11T04:25:26.357Z,13.80
2018-09-11T04:27:54.459Z,13.74
2018-09-11T04:30:22.717Z,13.70
2018-09-11T04:32:50.807Z,13.65
2018-09-11T04:35:18.900Z,13.58
2018-09-11T04:37:47.006Z,13.51
2018-09-11T04:40:15.104Z,13.52
2018-09-11T04:42:43.253Z,13.49
2018-09-11T04:45:11.395Z,13.35
2018-09-11T04:47:39.499Z,13.33
2018-09-11T04:50:07.664Z,13.31
2018-09-11T04:52:35.779Z,13.19
2018-09-11T04:55:03.892Z,13.19
2018-09-11T04:57:31.995Z,13.19
2018-09-11T05:00:00.084Z,13.11
2018-09-11T05:02:28.189Z,13.21
2018-09-11T05:04:56.300Z,13.23
2018-09-11T05:07:24.719Z,13.29
2018-09-11T05:09:52.830Z,13.33
2018-09-11T05:12:20.963Z,13.40
2018-09-11T05:14:49.067Z,13.43
2018-09-11T05:17:17.189Z,13.47
2018-09-11T05:19:45.285Z,13.55
2018-09-11T05:22:13.371Z,13.62
2018-09-11T05:24:41.485Z,13.67
2018-09-11T05:27:09.582Z,13.71
2018-09-11T05:29:37.703Z,13.80
2018-09-11T05:32:05.819Z,13.85
2018-09-11T05:34:33.924Z,13.85
2018-09-11T05:37:02.030Z,13.95
2018-09-11T05:39:30.135Z,14.11
2018-09-11T05:41:58.237Z,14.23
2018-09-11T05:44:26.492Z,14.31
2018-09-11T05:46:54.595Z,14.30
2018-09-11T05:49:22.706Z,14.31
2018-09-11T05:51:50.812Z,14.35
2018-09-11T05:54:18.905Z,14.33
2018-09-11T05:56:47.008Z,14.34
2018-09-11T05:59:15.121Z,14.60
2018-09-11T06:01:43.242Z,15.29
2018-09-11T06:04:11.359Z,16.04
2018-09-11T06:06:39.439Z,16.28
2018-09-11T06:09:10.412Z,16.31
2018-09-11T06:11:38.519Z,16.20
2018-09-11T06:14:06.683Z,16.06
2018-09-11T06:16:34.816Z,15.92
2018-09-11T06:19:02.964Z,15.84
2018-09-11T06:21:31.077Z,15.86
2018-09-11T06:23:59.187Z,15.70
2018-09-11T06:26:27.779Z,15.59
2018-09-11T06:28:56.328Z,15.71
2018-09-11T06:31:24.439Z,15.84
2018-09-11T06:33:52.551Z,16.07
2018-09-11T06:36:20.668Z,16.27
2018-09-11T06:38:48.787Z,16.28
2018-09-11T06:41:16.948Z,16.35
2018-09-11T06:43:45.017Z,16.54
2018-09-11T06:46:13.134Z,16.65
2018-09-11T06:48:41.220Z,16.66
2018-09-11T06:51:09.334Z,16.83
2018-09-11T06:53:37.488Z,16.97
2018-09-11T06:56:05.706Z,17.26
2018-09-11T06:58:33.805Z,17.41
2018-09-11T07:01:01.911Z,17.62
2018-09-11T07:03:30.028Z,17.89
2018-09-11T07:05:58.874Z,18.21
2018-09-11T07:08:27.024Z,18.55
2018-09-11T07:10:55.097Z,18.64
2018-09-11T07:13:23.199Z,18.63
2018-09-11T07:15:51.306Z,18.64
2018-09-11T07:18:19.416Z,18.72
2018-09-11T07:20:47.524Z,18.99
2018-09-11T07:23:15.712Z,18.91
2018-09-11T07:25:43.869Z,18.97
2018-09-11T07:28:11.960Z,18.84
2018-09-11T07:30:40.076Z,18.88
2018-09-11T07:33:08.223Z,18.82
2018-09-11T07:35:36.334Z,18.89
2018-09-11T07:38:04.423Z,18.95
2018-09-11T07:40:32.507Z,18.89
2018-09-11T07:43:00.947Z,19.10
2018-09-11T07:45:29.958Z,19.29
2018-09-11T07:47:58.075Z,19.36
2018-09-11T07:50:26.146Z,19.47
2018-09-11T07:52:54.286Z,19.74
2018-09-11T07:55:22.318Z,19.83
2018-09-11T07:57:50.595Z,20.07
2018-09-11T08:00:18.668Z,20.35
2018-09-11T08:02:46.771Z,20.32
2018-09-11T08:05:14.887Z,20.40
2018-09-11T08:07:42.966Z,20.71
2018-09-11T08:10:11.091Z,20.85
2018-09-11T08:12:39.173Z,21.05
2018-09-11T08:15:07.708Z,21.01
2018-09-11T08:17:35.815Z,21.13
2018-09-11T08:20:03.883Z,21.32
2018-09-11T08:22:31.965Z,21.42
2018-09-11T08:25:00.043Z,21.62
2018-09-11T08:27:28.476Z,21.88
2018-09-11T08:29:56.969Z,21.97
2018-09-11T08:32:25.068Z,21.92
2018-09-11T08:34:53.139Z,21.91
2018-09-11T08:37:21.252Z,22.01
2018-09-11T08:39:49.351Z,21.98
2018-09-11T08:42:17.459Z,22.03
2018-09-11T08:44:45.582Z,22.02
2018-09-11T08:47:13.689Z,21.93
2018-09-11T08:49:41.795Z,21.80
2018-09-11T08:52:09.969Z,21.88
2018-09-11T08:54:38.003Z,21.88
2018-09-11T08:57:06.212Z,21.87
2018-09-11T08:59:34.308Z,22.03
2018-09-11T09:02:02.443Z,21.98
2018-09-11T09:04:30.549Z,21.80
2018-09-11T09:06:58.651Z,21.80
2018-09-11T09:09:26.745Z,21.96
2018-09-11T09:11:54.861Z,22.18
2018-09-11T09:14:22.964Z,22.26
2018-09-11T09:16:51.064Z,22.49
2018-09-11T09:19:19.178Z,22.70
2018-09-11T09:21:47.284Z,22.82
2018-09-11T09:24:15.402Z,22.85
2018-09-11T09:26:43.508Z,22.93
2018-09-11T09:29:11.615Z,22.86
2018-09-11T09:31:39.725Z,22.98
2018-09-11T09:34:07.902Z,23.18
2018-09-11T09:36:36.089Z,22.92
2018-09-11T09:39:04.769Z,22.78
2018-09-11T09:41:33.236Z,22.93
2018-09-11T09:44:01.351Z,23.13
2018-09-11T09:46:29.387Z,23.30
2018-09-11T09:48:57.473Z,23.53
2018-09-11T09:51:25.578Z,23.72
2018-09-11T09:53:53.675Z,23.81
2018-09-11T09:56:21.743Z,23.74
2018-09-11T09:58:49.789Z,23.47
2018-09-11T10:01:23.188Z,23.75
2018-09-11T10:03:51.286Z,23.89
2018-09-11T10:06:19.376Z,23.90
2018-09-11T10:08:47.457Z,24.05
2018-09-11T10:11:15.540Z,24.22
2018-09-11T10:13:43.616Z,24.32
2018-09-11T10:16:11.688Z,24.35
2018-09-11T10:18:39.763Z,24.35
2018-09-11T10:21:07.897Z,24.29
2018-09-11T10:23:36.027Z,24.46
2018-09-11T10:26:04.622Z,24.32
2018-09-11T10:28:32.694Z,24.53
2018-09-11T10:31:00.899Z,24.74
2018-09-11T10:33:29.006Z,24.80
2018-09-11T10:35:57.089Z,24.94
2018-09-11T10:38:25.210Z,25.02
2018-09-11T10:41:00.398Z,24.74
2018-09-11T10:43:28.514Z,24.99
2018-09-11T10:45:56.639Z,25.10
2018-09-11T10:48:24.728Z,25.18
2018-09-11T10:50:52.904Z,25.42
2018-09-11T10:53:21.007Z,25.38
2018-09-11T10:55:49.169Z,25.45
2018-09-11T10:58:17.241Z,25.44
2018-09-11T11:00:45.348Z,25.42
2018-09-11T11:03:13.453Z,25.49
2018-09-11T11:05:41.560Z,25.51
2018-09-11T11:08:09.668Z,25.70
2018-09-11T11:10:37.790Z,25.93
2018-09-11T11:13:06.364Z,25.80
2018-09-11T11:15:34.467Z,25.82
2018-09-11T11:18:02.584Z,25.85
2018-09-11T11:20:30.775Z,25.68
2018-09-11T11:22:59.050Z,25.62
2018-09-11T11:25:27.138Z,25.77
2018-09-11T11:27:55.232Z,26.02
2018-09-11T11:30:23.358Z,26.00
2018-09-11T11:32:51.554Z,25.80
2018-09-11T11:35:19.664Z,25.94
2018-09-11T11:37:48.006Z,25.82
2018-09-11T11:40:16.101Z,25.90
2018-09-11T11:42:44.284Z,25.96
2018-09-11T11:45:12.298Z,26.01
2018-09-11T11:47:40.388Z,26.07
2018-09-11T11:50:08.479Z,26.12
2018-09-11T11:52:37.364Z,26.58
2018-09-11T11:55:05.576Z,26.40
2018-09-11T11:57:33.620Z,26.73
2018-09-11T12:00:01.754Z,26.48
2018-09-11T12:02:29.854Z,26.66
2018-09-11T12:04:58.191Z,26.70
2018-09-11T12:07:26.552Z,26.56
2018-09-11T12:09:54.652Z,26.28
2018-09-11T12:12:22.763Z,26.44
2018-09-11T12:14:50.862Z,26.55
2018-09-11T12:17:19.009Z,26.80
2018-09-11T12:19:47.104Z,26.71
2018-09-11T12:22:15.220Z,26.51
2018-09-11T12:24:43.325Z,26.36
2018-09-11T12:27:11.408Z,26.33
2018-09-11T12:29:39.472Z,26.38
2018-09-11T12:32:07.580Z,26.46
2018-09-11T12:34:35.650Z,26.62
2018-09-11T12:37:03.754Z,26.73
2018-09-11T12:39:31.830Z,26.69
2018-09-11T12:41:59.951Z,26.73
2018-09-11T12:44:28.047Z,26.84
2018-09-11T12:46:56.418Z,26.88
2018-09-11T12:49:24.260Z,26.82
2018-09-11T12:51:52.382Z,26.88
2018-09-11T12:54:20.494Z,26.76
2018-09-11T12:56:48.615Z,26.36
2018-09-11T12:59:16.719Z,26.73
2018-09-11T13:01:44.828Z,27.07
2018-09-11T13:04:12.920Z,27.06
2018-09-11T13:06:41.031Z,27.04
2018-09-11T13:09:10.009Z,27.16
2018-09-11T13:11:38.076Z,27.09
2018-09-11T13:14:06.174Z,27.21
2018-09-11T13:16:34.286Z,27.34
2018-09-11T13:19:02.399Z,27.47
2018-09-11T13:21:30.524Z,27.51
2018-09-11T13:23:58.619Z,27.53
2018-09-11T13:26:26.755Z,27.43
2018-09-11T13:28:54.876Z,27.42
2018-09-11T13:31:23.124Z,27.55
2018-09-11T13:33:51.306Z,27.54
2018-09-11T13:36:19.375Z,27.63
2018-09-11T13:38:47.492Z,27.77
2018-09-11T13:41:15.602Z,27.76
2018-09-11T13:43:43.687Z,27.89
2018-09-11T13:46:11.852Z,27.89
2018-09-11T13:48:39.911Z,28.18
2018-09-11T13:51:08.379Z,27.96
2018-09-11T13:53:36.495Z,27.81
2018-09-11T13:56:07.643Z,27.94
2018-09-11T22:02:36.845Z,16.79
2018-09-11T22:05:04.973Z,16.76
2018-09-11T22:07:33.041Z,16.72
2018-09-11T22:10:01.196Z,16.69
2018-09-11T22:12:30.239Z,16.66
2018-09-11T22:14:58.326Z,16.66
2018-09-11T22:17:26.415Z,16.59
2018-09-11T22:19:54.490Z,16.56
2018-09-11T22:22:22.568Z,16.46
2018-09-11T22:24:50.658Z,16.46
2018-09-11T22:27:18.830Z,16.46
2018-09-11T22:29:46.938Z,16.47
2018-09-11T22:32:15.040Z,16.42
2018-09-11T22:34:43.163Z,16.44
2018-09-11T22:37:11.285Z,16.26
2018-09-11T22:39:39.529Z,16.21
2018-09-11T22:42:07.655Z,16.18
2018-09-11T22:44:35.756Z,16.09
2018-09-11T22:47:03.823Z,15.99
2018-09-11T22:49:31.907Z,15.91
2018-09-11T22:51:59.986Z,15.93
2018-09-11T22:54:28.099Z,15.90
2018-09-11T22:56:56.227Z,15.85
2018-09-11T22:59:24.597Z,15.80
2018-09-11T23:01:52.679Z,15.72
2018-09-11T23:04:20.752Z,15.75
2018-09-11T23:06:48.872Z,15.72
2018-09-11T23:09:16.939Z,15.69
2018-09-11T23:11:45.017Z,15.66
2018-09-11T23:14:13.107Z,15.58
2018-09-11T23:16:41.191Z,15.65
2018-09-11T23:19:09.261Z,15.60
2018-09-11T23:21:37.355Z,15.57
2018-09-11T23:24:05.448Z,15.55
2018-09-11T23:26:33.542Z,15.53
2018-09-11T23:29:02.650Z,15.51
2018-09-11T23:31:30.754Z,15.48
2018-09-11T23:33:58.815Z,15.28
2018-09-11T23:36:26.969Z,15.27
2018-09-11T23:38:55.088Z,15.31
2018-09-11T23:41:23.169Z,15.29
2018-09-11T23:43:51.267Z,15.26
2018-09-11T23:46:19.364Z,15.09
2018-09-11T23:48:47.504Z,14.96
2018-09-11T23:51:15.588Z,15.12
2018-09-11T23:53:43.703Z,15.17
2018-09-11T23:56:11.795Z,14.94
2018-09-11T23:58:39.922Z,14.95
